createdAt,value
2023-02-12T14:26:09.444Z,9.20
2023-02-12T14:27:49.984Z,9.43
2023-02-12T14:29:17.248Z,10.00
2023-02-12T14:30:40.353Z,9.00
2023-02-12T14:32:04.962Z,8.13
2023-02-12T14:33:27.225Z,8.48
2023-02-12T14:34:49.070Z,9.68
2023-02-12T14:36:21.231Z,8.60
2023-02-12T14:37:42.915Z,7.43
2023-02-12T14:39:19.912Z,9.45
2023-02-12T14:40:47.105Z,8.77
2023-02-12T14:42:11.245Z,8.35
2023-02-12T14:43:55.176Z,7.82
2023-02-12T14:45:30.680Z,8.38
2023-02-12T14:46:53.303Z,7.35
2023-02-12T14:48:34.892Z,8.18
2023-02-12T14:49:58.121Z,7.40
2023-02-12T14:51:28.470Z,8.57
2023-02-12T14:52:53.284Z,8.38
2023-02-12T14:54:35.618Z,7.35
2023-02-12T14:55:57.618Z,7.55
2023-02-12T14:57:28.848Z,7.85
2023-02-12T14:58:51.540Z,7.25
2023-02-12T15:00:13.359Z,7.03
2023-02-12T15:01:35.319Z,6.60
2023-02-12T15:03:02.874Z,7.95
2023-02-12T15:04:25.938Z,7.32
2023-02-12T15:05:52.004Z,8.05
2023-02-12T15:07:18.446Z,6.93
2023-02-12T15:08:42.589Z,6.93
2023-02-12T15:10:24.594Z,5.90
2023-02-12T15:11:48.238Z,6.53
2023-02-12T15:13:30.286Z,6.40
2023-02-12T15:14:52.571Z,7.22
2023-02-12T15:16:14.300Z,5.75
2023-02-12T15:17:35.869Z,6.40
2023-02-12T15:18:59.203Z,7.65
2023-02-12T15:20:21.493Z,6.25
2023-02-12T15:21:44.137Z,6.10
2023-02-12T15:23:25.976Z,5.72
2023-02-12T15:24:47.845Z,6.22
2023-02-12T15:26:14.760Z,6.80
2023-02-12T15:27:36.228Z,6.28
2023-02-12T15:28:58.186Z,6.28
2023-02-12T15:30:26.255Z,6.85
2023-02-12T15:32:01.418Z,6.97
2023-02-12T15:33:27.757Z,7.22
2023-02-12T15:34:50.060Z,7.25
2023-02-12T15:36:11.568Z,7.03
2023-02-12T15:37:33.283Z,7.32
2023-02-12T15:38:55.798Z,6.68
2023-02-12T15:40:17.401Z,7.15
2023-02-12T15:41:40.357Z,6.50
2023-02-12T15:43:08.580Z,6.75
2023-02-12T15:44:31.254Z,6.22
2023-02-12T15:45:53.111Z,6.55
2023-02-12T15:47:17.202Z,6.97
2023-02-12T15:48:39.212Z,7.53
2023-02-12T15:50:01.079Z,6.53
2023-02-12T15:51:27.128Z,6.53
2023-02-12T15:52:48.696Z,6.85
2023-02-12T15:54:19.575Z,6.22
2023-02-12T15:55:42.825Z,6.78
2023-02-12T15:57:10.025Z,6.25
2023-02-12T15:58:54.643Z,6.25
2023-02-12T16:00:43.577Z,7.35
2023-02-12T16:02:05.484Z,6.40
2023-02-12T16:03:31.819Z,7.05
2023-02-12T16:04:53.703Z,7.03
2023-02-12T16:06:16.844Z,7.93
2023-02-12T16:07:39.618Z,6.75
2023-02-12T16:09:01.554Z,6.63
2023-02-12T16:10:22.957Z,6.53
2023-02-12T16:11:45.161Z,5.65
2023-02-12T16:13:06.999Z,5.63
2023-02-12T16:14:43.403Z,7.22
2023-02-12T16:16:14.122Z,5.07
2023-02-12T16:17:37.087Z,4.45
2023-02-12T16:19:09.157Z,5.13
2023-02-12T16:20:30.920Z,5.13
2023-02-12T16:21:57.849Z,5.30
2023-02-12T16:23:26.610Z,4.50
2023-02-12T16:24:48.881Z,4.85
2023-02-12T16:26:13.405Z,4.78
2023-02-12T16:27:35.293Z,4.18
2023-02-12T16:28:57.712Z,4.45
2023-02-12T16:30:28.709Z,4.00
2023-02-12T16:31:57.985Z,3.80
2023-02-12T16:33:38.242Z,4.25
2023-02-12T16:35:12.545Z,4.72
2023-02-12T16:36:34.051Z,3.78
2023-02-12T16:38:01.188Z,5.32
2023-02-12T16:39:42.111Z,999.90
2023-02-12T16:41:19.007Z,201.20
2023-02-12T16:42:56.563Z,65.63
2023-02-12T16:44:18.644Z,79.45
2023-02-12T16:45:40.854Z,31.50
2023-02-12T16:47:02.913Z,65.38
2023-02-12T16:48:25.391Z,42.13
2023-02-12T16:49:57.061Z,36.45
2023-02-12T16:51:21.570Z,35.42
2023-02-12T16:52:43.369Z,29.77
2023-02-12T16:54:05.521Z,61.33
2023-02-12T16:55:27.289Z,36.47
2023-02-12T16:56:49.256Z,27.95
2023-02-12T16:58:13.255Z,35.65
2023-02-12T16:59:35.937Z,28.42
2023-02-12T17:00:57.978Z,43.92
2023-02-12T17:02:20.186Z,52.30
2023-02-12T17:03:42.052Z,29.48
2023-02-12T17:05:07.234Z,29.25
2023-02-12T17:06:30.804Z,27.40
2023-02-12T17:07:54.551Z,25.00
2023-02-12T17:09:16.261Z,46.13
2023-02-12T17:10:38.251Z,51.30
2023-02-12T17:12:02.212Z,128.27
2023-02-12T17:13:23.954Z,125.55
2023-02-12T17:14:45.986Z,209.13
2023-02-12T17:16:07.544Z,175.55
2023-02-12T17:17:29.080Z,186.63
2023-02-12T17:18:50.741Z,196.63
2023-02-12T17:20:12.920Z,234.05
2023-02-12T17:21:38.462Z,248.40
2023-02-12T17:23:00.987Z,258.33
2023-02-12T17:24:29.447Z,254.40
2023-02-12T17:25:51.325Z,236.45
2023-02-12T17:27:13.882Z,108.07
2023-02-12T17:28:35.793Z,31.08
2023-02-12T17:29:57.557Z,69.97
2023-02-12T17:31:20.856Z,26.33
2023-02-12T17:32:42.486Z,25.38
2023-02-12T17:34:04.777Z,60.42
2023-02-12T17:35:26.596Z,73.68
2023-02-12T17:36:50.398Z,75.32
2023-02-12T17:38:11.872Z,50.10
2023-02-12T17:39:33.508Z,31.25
2023-02-12T17:40:55.585Z,25.98
2023-02-12T17:42:17.363Z,25.40
2023-02-12T17:43:39.245Z,39.60
2023-02-12T17:45:00.740Z,106.35
2023-02-12T17:46:23.137Z,100.57
2023-02-12T17:47:47.096Z,83.30
2023-02-12T17:49:08.956Z,89.95
2023-02-12T17:50:33.641Z,93.85
2023-02-12T17:52:07.354Z,168.32
2023-02-12T17:53:29.586Z,230.60
2023-02-12T17:54:51.395Z,225.93
2023-02-12T17:56:14.139Z,137.15
2023-02-12T17:57:35.581Z,269.67
2023-02-12T17:58:57.074Z,237.27
2023-02-12T18:00:19.424Z,245.70
2023-02-12T18:01:41.269Z,273.20
2023-02-12T18:03:03.017Z,235.10
2023-02-12T18:04:24.742Z,275.00
2023-02-12T18:05:46.982Z,224.88
2023-02-12T18:07:08.446Z,262.35
2023-02-12T18:08:30.191Z,235.27
2023-02-12T18:09:51.804Z,238.25
2023-02-12T18:11:13.307Z,240.30
2023-02-12T18:12:35.293Z,269.70
2023-02-12T18:13:57.534Z,249.00
2023-02-12T18:15:21.124Z,255.63
2023-02-12T18:16:42.953Z,235.02
2023-02-12T18:18:04.545Z,254.85
2023-02-12T18:19:26.788Z,205.55
2023-02-12T18:20:48.467Z,172.27
2023-02-12T18:22:10.085Z,178.85
2023-02-12T18:23:31.708Z,150.63
2023-02-12T18:24:54.242Z,171.93
2023-02-12T18:26:16.469Z,153.48
2023-02-12T18:27:39.619Z,136.55
2023-02-12T18:29:01.601Z,117.95
2023-02-12T18:30:25.949Z,171.02
2023-02-12T18:31:47.454Z,128.88
2023-02-12T18:33:09.743Z,93.75
2023-02-12T18:34:31.617Z,84.13
2023-02-12T18:36:03.271Z,89.38
2023-02-12T18:37:25.113Z,95.25
2023-02-12T18:38:47.654Z,78.00
2023-02-12T18:40:11.714Z,83.15
2023-02-12T18:41:35.867Z,101.72
2023-02-12T18:42:57.903Z,122.20
2023-02-12T18:44:19.847Z,91.18
2023-02-12T18:45:42.034Z,99.97
2023-02-12T18:47:04.010Z,125.97
2023-02-12T18:48:25.430Z,89.35
2023-02-12T18:49:47.367Z,99.32
2023-02-12T18:51:09.488Z,86.30
2023-02-12T18:52:32.091Z,104.70
2023-02-12T18:54:05.922Z,86.43
2023-02-12T18:55:28.762Z,83.15
2023-02-12T18:56:51.908Z,91.32
2023-02-12T18:58:13.955Z,120.88
2023-02-12T18:59:35.678Z,126.28
2023-02-12T19:00:57.731Z,121.28
2023-02-12T19:02:19.822Z,113.97
2023-02-12T19:03:41.517Z,99.13
2023-02-12T19:05:05.685Z,101.40
2023-02-12T19:06:28.134Z,98.22
2023-02-12T19:07:49.619Z,79.05
2023-02-12T19:09:11.580Z,85.93
2023-02-12T19:10:33.489Z,80.88
2023-02-12T19:11:55.696Z,85.80
2023-02-12T19:13:17.363Z,71.53
2023-02-12T19:14:39.558Z,85.00
2023-02-12T19:16:06.219Z,78.38
2023-02-12T19:17:28.017Z,81.28
2023-02-12T19:18:50.738Z,99.93
2023-02-12T19:20:13.632Z,94.65
2023-02-12T19:21:35.547Z,96.20
2023-02-12T19:22:57.567Z,89.93
2023-02-12T19:24:19.561Z,98.63
2023-02-12T19:25:45.323Z,85.82
2023-02-12T19:27:07.370Z,68.22
2023-02-12T19:28:29.343Z,83.25
2023-02-12T19:29:51.105Z,78.78
2023-02-12T19:31:15.576Z,92.80
2023-02-12T19:32:38.300Z,79.55
2023-02-12T19:34:01.018Z,92.95
2023-02-12T19:35:23.105Z,87.57
2023-02-12T19:36:45.049Z,83.88
2023-02-12T19:38:06.889Z,97.22
2023-02-12T19:39:29.716Z,99.50
2023-02-12T19:40:51.936Z,109.50
2023-02-12T19:42:15.001Z,123.70
2023-02-12T19:43:37.265Z,108.10
2023-02-12T19:44:58.940Z,123.13
2023-02-12T19:46:22.962Z,106.75
2023-02-12T19:47:44.840Z,134.75
2023-02-12T19:49:08.422Z,134.35
2023-02-12T19:50:30.155Z,125.20
2023-02-12T19:51:52.194Z,137.07
2023-02-12T19:53:13.681Z,124.38
2023-02-12T19:54:35.501Z,120.63
2023-02-12T19:55:57.624Z,104.13
2023-02-12T19:57:19.509Z,112.55
2023-02-12T19:58:41.007Z,99.32
2023-02-12T20:00:09.263Z,99.97
2023-02-12T20:01:45.097Z,88.65
2023-02-12T20:03:06.887Z,91.03
2023-02-12T20:04:28.986Z,100.18
2023-02-12T20:05:55.130Z,103.57
2023-02-12T20:07:16.983Z,98.80
2023-02-12T20:08:39.437Z,101.57
2023-02-12T20:10:03.294Z,108.88
2023-02-12T20:11:25.868Z,104.72
2023-02-12T20:12:47.806Z,106.45
2023-02-12T20:14:10.314Z,100.85
2023-02-12T20:15:31.964Z,114.53
2023-02-12T20:16:58.498Z,105.10
2023-02-12T20:18:23.256Z,107.78
2023-02-12T20:19:45.005Z,110.00
2023-02-12T20:21:10.809Z,104.72
2023-02-12T20:22:32.295Z,105.03
2023-02-12T20:23:54.245Z,105.55
2023-02-12T20:25:16.429Z,104.55
2023-02-12T20:26:37.815Z,97.18
2023-02-12T20:27:59.382Z,94.60
2023-02-12T20:29:21.110Z,94.15
2023-02-12T20:30:42.936Z,101.65
2023-02-12T20:32:04.716Z,93.28
2023-02-12T20:33:26.775Z,82.75
2023-02-12T20:34:51.362Z,76.55
2023-02-12T20:36:13.341Z,60.03
2023-02-12T20:37:35.061Z,55.33
2023-02-12T20:38:56.709Z,51.10
2023-02-12T20:40:18.287Z,48.17
2023-02-12T20:41:40.160Z,36.20
2023-02-12T20:43:01.525Z,29.92
2023-02-12T20:44:23.214Z,28.95
2023-02-12T20:45:45.253Z,27.52
2023-02-12T20:47:07.013Z,25.58
2023-02-12T20:48:28.435Z,27.55
2023-02-12T20:49:50.449Z,30.15
2023-02-12T20:51:13.619Z,32.13
2023-02-12T20:52:35.160Z,31.35
2023-02-12T20:53:57.133Z,30.75
2023-02-12T20:55:19.016Z,31.70
2023-02-12T20:56:40.501Z,28.08
2023-02-12T20:58:02.589Z,26.15
2023-02-12T20:59:24.262Z,22.63
2023-02-12T21:00:45.797Z,18.92
2023-02-12T21:02:07.976Z,18.15
2023-02-12T21:03:30.162Z,16.23
2023-02-12T21:04:51.953Z,15.13
2023-02-12T21:06:13.980Z,14.07
2023-02-12T21:07:36.249Z,12.45
2023-02-12T21:08:57.992Z,11.90
2023-02-12T21:10:19.748Z,12.40
2023-02-12T21:11:42.257Z,13.77
2023-02-12T21:13:04.056Z,11.52
2023-02-12T21:14:26.075Z,12.77
2023-02-12T21:15:50.202Z,12.63
2023-02-12T21:17:11.816Z,11.40
2023-02-12T21:18:33.362Z,11.60
2023-02-12T21:19:55.174Z,11.65
2023-02-12T21:21:18.065Z,11.40
2023-02-12T21:22:39.858Z,12.00
2023-02-12T21:24:02.072Z,11.48
2023-02-12T21:25:23.840Z,10.57
2023-02-12T21:26:45.540Z,10.52
2023-02-12T21:28:07.324Z,10.57
2023-02-12T21:29:33.172Z,9.57
2023-02-12T21:30:55.008Z,9.80
2023-02-12T21:32:16.881Z,9.73
2023-02-12T21:33:39.197Z,7.72
2023-02-12T21:35:00.824Z,8.73
2023-02-12T21:36:23.460Z,8.93
2023-02-12T21:37:45.375Z,8.23
2023-02-12T21:39:07.589Z,6.55
2023-02-12T21:40:29.062Z,6.88
2023-02-12T21:41:51.089Z,5.90
2023-02-12T21:43:12.580Z,5.40
2023-02-12T21:44:35.676Z,5.35
2023-02-12T21:46:00.226Z,6.25
2023-02-12T21:47:21.747Z,5.18
2023-02-12T21:48:45.838Z,6.20
2023-02-12T21:50:08.523Z,5.80
2023-02-12T21:51:30.780Z,9.60
2023-02-12T21:52:52.916Z,6.90
2023-02-12T21:54:18.356Z,6.05
2023-02-12T21:55:40.084Z,5.78
2023-02-12T21:57:01.667Z,5.45
2023-02-12T21:58:26.287Z,5.90
2023-02-12T21:59:48.179Z,6.10
2023-02-12T22:01:14.102Z,5.80
2023-02-12T22:02:35.772Z,8.25
2023-02-12T22:03:57.916Z,7.28
2023-02-12T22:05:19.379Z,7.45
2023-02-12T22:06:42.604Z,7.15
2023-02-12T22:08:04.777Z,6.78
2023-02-12T22:09:26.297Z,7.72
2023-02-12T22:10:47.741Z,6.63
2023-02-12T22:12:09.683Z,6.97
2023-02-12T22:13:31.479Z,7.72
2023-02-12T22:14:52.916Z,7.63
2023-02-12T22:16:15.724Z,6.97
2023-02-12T22:17:37.386Z,6.85
2023-02-12T22:19:01.922Z,6.90
2023-02-12T22:20:23.853Z,7.93
2023-02-12T22:21:45.573Z,7.45
2023-02-12T22:23:07.307Z,9.57
2023-02-12T22:24:29.190Z,7.55
2023-02-12T22:25:50.694Z,8.70
2023-02-12T22:27:12.191Z,8.32
2023-02-12T22:28:34.196Z,7.38
2023-02-12T22:29:56.452Z,17.38
2023-02-12T22:31:19.742Z,21.25
2023-02-12T22:32:42.197Z,34.83
2023-02-12T22:34:04.896Z,23.35
2023-02-12T22:35:26.784Z,8.75
2023-02-12T22:36:48.916Z,8.38
2023-02-12T22:38:13.024Z,7.85
2023-02-12T22:39:36.661Z,8.38
2023-02-12T22:41:00.533Z,9.77
2023-02-12T22:42:22.261Z,10.35
2023-02-12T22:43:43.782Z,14.15
2023-02-12T22:45:05.877Z,12.65
2023-02-12T22:46:27.244Z,12.02
2023-02-12T22:47:49.087Z,12.57
2023-02-12T22:49:11.209Z,15.68
2023-02-12T22:50:32.961Z,17.60
2023-02-12T22:51:54.513Z,17.42
2023-02-12T22:53:16.501Z,17.67
2023-02-12T22:54:38.257Z,12.23
2023-02-12T22:56:02.625Z,12.68
2023-02-12T22:57:24.349Z,10.23
2023-02-12T22:58:46.229Z,10.18
2023-02-12T23:00:08.464Z,11.13
2023-02-12T23:01:30.360Z,10.05
2023-02-12T23:02:52.197Z,8.90
2023-02-12T23:04:17.146Z,13.93
2023-02-12T23:05:39.256Z,10.20
2023-02-12T23:07:01.071Z,12.48
2023-02-12T23:08:22.850Z,11.35
2023-02-12T23:09:44.352Z,9.90
2023-02-12T23:11:08.696Z,11.60
2023-02-12T23:12:30.099Z,11.73
2023-02-12T23:13:54.245Z,11.40
2023-02-12T23:15:16.168Z,12.18
2023-02-12T23:16:38.100Z,11.38
2023-02-12T23:17:59.931Z,13.80
2023-02-12T23:19:22.140Z,12.55
2023-02-12T23:20:43.649Z,13.18
2023-02-12T23:22:06.436Z,19.10
2023-02-12T23:23:28.594Z,15.88
2023-02-12T23:24:51.090Z,23.25
2023-02-12T23:26:12.735Z,23.23
2023-02-12T23:27:36.996Z,17.08
2023-02-12T23:28:58.946Z,17.70
2023-02-12T23:30:20.927Z,14.18
2023-02-12T23:31:43.081Z,15.68
2023-02-12T23:33:04.988Z,14.60
